Holy Trinity, Alabama
Current Conditions -  °F | °C
As of 3:58 PM on Tuesday 21 Oct 2014 (Local Time) from KLSF Reporting Station
Clear Clear  
Wind Chill: 79°   Ceiling: Unl
Heat Index: 79°   Visibility: 10mi
Dew Point: 52°   Wind: 9mph
Humidity: 39%   Direction: 320°NW
Pressure: 29.94"   Gusts: NA
Location:  32.22°N, 85.01°W
Report Text: KLSF 212058Z AUTO 32008KT 10SM CLR 26/11 A2994 RMK AO2 SLP140 T02590110 57018
Loading
Personal Weather Stations






























Interactive Weather Map
Tropical Storm Tracking
New forecast layout! Learn more

10-Day Weather Forecast

Advertisements
Track Severe Weather on mobile